createdAt,value
2023-04-18T00:00:24.273Z,46.94
2023-04-18T00:02:57.080Z,46.96
2023-04-18T00:05:32.649Z,47.84
2023-04-18T00:08:05.490Z,47.70
2023-04-18T00:10:38.186Z,47.50
2023-04-18T00:13:13.855Z,47.68
2023-04-18T00:15:49.245Z,46.74
2023-04-18T00:18:22.023Z,47.13
2023-04-18T00:20:54.780Z,47.76
2023-04-18T00:23:28.208Z,47.72
2023-04-18T00:26:01.350Z,47.53
2023-04-18T00:28:51.010Z,47.79
2023-04-18T00:31:23.996Z,47.96
2023-04-18T00:33:56.639Z,47.15
2023-04-18T00:36:40.983Z,46.81
2023-04-18T00:39:22.646Z,47.69
2023-04-18T00:42:02.592Z,46.83
2023-04-18T00:44:41.106Z,46.61
2023-04-18T00:47:19.555Z,47.59
2023-04-18T00:49:52.645Z,47.66
2023-04-18T00:52:27.578Z,46.68
2023-04-18T00:55:00.258Z,47.49
2023-04-18T00:57:45.088Z,46.72
2023-04-18T01:00:26.767Z,47.69
2023-04-18T01:03:14.275Z,47.08
2023-04-18T01:06:02.405Z,47.61
2023-04-18T01:08:45.306Z,47.73
2023-04-18T01:11:17.916Z,46.53
2023-04-18T01:14:04.762Z,47.54
2023-04-18T01:16:37.392Z,47.71
2023-04-18T01:19:16.952Z,47.80
2023-04-18T01:21:55.409Z,46.59
2023-04-18T01:24:29.754Z,46.57
2023-04-18T01:27:13.362Z,46.70
2023-04-18T01:29:54.768Z,46.56
2023-04-18T01:38:00.450Z,47.24
2023-04-18T01:40:45.237Z,46.62
2023-04-18T01:43:17.845Z,46.77
2023-04-18T01:46:02.590Z,46.89
2023-04-18T01:48:35.153Z,46.48
2023-04-18T01:51:07.814Z,47.32
2023-04-18T01:53:40.329Z,47.16
2023-04-18T01:56:13.033Z,46.96
2023-04-18T01:59:00.955Z,47.81
2023-04-18T02:01:33.437Z,46.71
2023-04-18T02:04:11.809Z,46.61
2023-04-18T02:06:44.563Z,46.63
2023-04-18T02:09:27.701Z,47.08
2023-04-18T02:12:15.259Z,46.73
2023-04-18T02:15:04.858Z,47.16
2023-04-18T02:17:38.108Z,47.60
2023-04-18T02:20:10.978Z,46.58
2023-04-18T02:22:51.776Z,46.79
2023-04-18T02:25:33.711Z,47.71
2023-04-18T02:28:15.100Z,46.81
2023-04-18T02:31:02.697Z,46.73
2023-04-18T02:33:35.175Z,47.20
2023-04-18T02:37:07.058Z,47.65
2023-04-18T02:40:45.655Z,47.46
2023-04-18T02:44:11.257Z,47.50
2023-04-18T02:47:54.554Z,46.80
2023-04-18T02:50:29.872Z,47.57
2023-04-18T02:53:02.432Z,46.67
2023-04-18T02:55:35.129Z,46.75
2023-04-18T02:58:07.632Z,47.53
2023-04-18T03:00:56.624Z,46.82
2023-04-18T03:06:16.058Z,47.58
2023-04-18T03:08:48.508Z,47.13
2023-04-18T03:11:27.103Z,47.61
2023-04-18T03:14:14.707Z,46.70
2023-04-18T03:16:59.801Z,47.81
2023-04-18T03:19:32.273Z,47.30
2023-04-18T03:22:06.197Z,47.80
2023-04-18T03:27:39.415Z,46.95
2023-04-18T03:30:18.328Z,46.69
2023-04-18T03:33:02.718Z,46.88
2023-04-18T03:35:38.039Z,47.65
2023-04-18T03:38:10.683Z,47.71
2023-04-18T03:40:44.616Z,47.83
2023-04-18T03:43:20.802Z,47.68
2023-04-18T03:45:53.561Z,47.47
2023-04-18T03:48:38.589Z,47.67
2023-04-18T03:54:09.692Z,47.64
2023-04-18T03:57:03.284Z,46.54
2023-04-18T03:59:36.094Z,47.46
2023-04-18T04:02:18.225Z,47.23
2023-04-18T04:04:50.960Z,47.60
2023-04-18T04:07:24.694Z,47.41
2023-04-18T04:09:59.108Z,46.48
2023-04-18T04:12:31.531Z,47.60
2023-04-18T04:15:04.450Z,47.61
2023-04-18T04:21:04.034Z,46.69
2023-04-18T04:23:36.580Z,47.66
2023-04-18T04:26:18.337Z,47.58
2023-04-18T04:29:00.144Z,47.62
2023-04-18T04:31:38.666Z,46.60
2023-04-18T04:34:23.253Z,46.56
2023-04-18T04:36:55.771Z,46.92
2023-04-18T04:39:28.308Z,47.46
2023-04-18T04:42:04.748Z,47.45
2023-04-18T04:44:37.430Z,46.80
2023-04-18T04:47:19.612Z,47.38
2023-04-18T04:49:52.100Z,46.84
2023-04-18T04:52:24.606Z,46.58
2023-04-18T04:54:57.261Z,46.65
2023-04-18T04:57:32.663Z,47.43
2023-04-18T05:00:15.569Z,47.33
2023-04-18T05:02:49.106Z,46.84
2023-04-18T05:05:34.275Z,47.21
2023-04-18T05:08:07.068Z,47.49
2023-04-18T05:10:39.649Z,46.58
2023-04-18T05:13:12.105Z,46.82
2023-04-18T05:18:32.545Z,46.60
2023-04-18T05:21:07.513Z,46.86
2023-04-18T05:23:43.158Z,47.70
2023-04-18T05:26:15.946Z,46.76
2023-04-18T05:28:54.430Z,46.65
2023-04-18T05:31:27.497Z,47.45
2023-04-18T05:34:00.295Z,47.00
2023-04-18T05:36:41.570Z,46.71
2023-04-18T05:39:14.235Z,47.11
2023-04-18T05:41:46.802Z,46.89
2023-04-18T05:44:25.505Z,46.67
2023-04-18T05:47:01.082Z,47.06
2023-04-18T05:49:33.717Z,46.54
2023-04-18T05:54:53.265Z,47.49
2023-04-18T05:57:37.266Z,47.46
2023-04-18T06:02:58.548Z,46.96
2023-04-18T06:05:31.432Z,47.56
2023-04-18T06:08:16.050Z,47.47
2023-04-18T06:10:57.719Z,47.46
2023-04-18T06:13:39.543Z,46.79
2023-04-18T06:16:12.588Z,47.55
2023-04-18T06:18:45.059Z,47.23
2023-04-18T06:21:23.103Z,46.88
2023-04-18T06:24:04.626Z,46.38
2023-04-18T06:26:37.240Z,46.15
2023-04-18T06:29:09.747Z,46.24
2023-04-18T06:31:45.554Z,46.25
2023-04-18T06:34:17.990Z,46.30
2023-04-18T06:36:50.459Z,46.25
2023-04-18T06:39:23.027Z,46.01
2023-04-18T06:42:20.168Z,46.18
2023-04-18T06:44:54.054Z,46.75
2023-04-18T06:47:26.595Z,45.95
2023-04-18T06:50:02.280Z,46.95
2023-04-18T06:52:40.638Z,46.14
2023-04-18T06:55:22.447Z,46.71
2023-04-18T06:57:55.028Z,46.22
2023-04-18T07:00:31.069Z,46.99
2023-04-18T07:03:17.185Z,46.82
2023-04-18T07:05:59.545Z,46.09
2023-04-18T07:08:34.604Z,46.18
2023-04-18T07:11:23.552Z,46.99
2023-04-18T07:14:07.350Z,45.83
2023-04-18T07:16:43.222Z,46.09
2023-04-18T07:19:18.605Z,45.79
2023-04-18T07:21:51.152Z,45.78
2023-04-18T07:24:23.948Z,45.90
2023-04-18T07:26:56.840Z,46.06
2023-04-18T07:29:29.347Z,46.08
2023-04-18T07:32:02.678Z,46.09
2023-04-18T07:34:36.160Z,45.49
2023-04-18T07:37:08.774Z,46.27
2023-04-18T07:39:41.369Z,45.75
2023-04-18T07:42:13.948Z,46.29
2023-04-18T07:44:49.701Z,45.23
2023-04-18T07:47:30.321Z,45.69
2023-04-18T07:50:04.118Z,45.51
2023-04-18T07:52:38.199Z,45.60
2023-04-18T07:55:11.833Z,45.21
2023-04-18T07:57:45.919Z,45.42
2023-04-18T08:00:19.518Z,46.00
2023-04-18T08:02:52.136Z,45.68
2023-04-18T08:05:33.685Z,46.00
2023-04-18T08:08:13.372Z,45.61
2023-04-18T08:10:48.905Z,45.15
2023-04-18T08:13:21.353Z,45.06
2023-04-18T08:15:55.743Z,45.42
2023-04-18T08:18:33.108Z,45.05
2023-04-18T08:21:05.718Z,45.60
2023-04-18T08:23:38.316Z,45.19
2023-04-18T08:26:10.912Z,45.58
2023-04-18T08:31:40.706Z,45.79
2023-04-18T08:34:13.173Z,45.65
2023-04-18T08:36:45.986Z,45.61
2023-04-18T08:39:18.464Z,45.64
2023-04-18T08:41:59.990Z,45.19
2023-04-18T08:44:32.758Z,44.63
2023-04-18T08:47:09.652Z,45.77
2023-04-18T08:49:43.944Z,44.62
2023-04-18T08:52:17.273Z,44.82
2023-04-18T08:54:51.232Z,44.92
2023-04-18T08:57:27.005Z,45.36
2023-04-18T09:00:10.084Z,45.04
2023-04-18T09:02:43.128Z,45.53
2023-04-18T09:05:19.511Z,44.94
2023-04-18T09:10:46.657Z,45.16
2023-04-18T09:13:47.073Z,45.07
2023-04-18T09:19:14.760Z,45.20
2023-04-18T09:21:58.247Z,45.49
2023-04-18T09:24:32.070Z,44.43
2023-04-18T09:27:12.362Z,44.95
2023-04-18T09:29:57.987Z,45.30
2023-04-18T09:32:30.734Z,45.09
2023-04-18T09:35:05.515Z,44.84
2023-04-18T09:37:40.838Z,45.11
2023-04-18T09:40:18.962Z,45.36
2023-04-18T09:42:54.570Z,44.68
2023-04-18T09:45:42.398Z,45.28
2023-04-18T09:48:24.244Z,44.91
2023-04-18T09:50:59.604Z,45.35
2023-04-18T09:53:33.071Z,44.89
2023-04-18T09:56:20.644Z,44.68
2023-04-18T10:02:02.526Z,44.13
2023-04-18T10:04:38.412Z,44.83
2023-04-18T10:07:11.583Z,45.19
2023-04-18T10:09:46.964Z,45.16
2023-04-18T10:12:20.238Z,45.54
2023-04-18T10:15:08.613Z,45.30
2023-04-18T10:18:05.339Z,44.18
2023-04-18T10:23:52.081Z,45.28
2023-04-18T10:27:04.884Z,44.55
2023-04-18T10:32:55.673Z,44.50
2023-04-18T10:35:28.188Z,45.46
2023-04-18T10:38:02.022Z,45.30
2023-04-18T10:40:35.243Z,45.42
2023-04-18T10:43:22.793Z,44.94
2023-04-18T10:49:32.786Z,44.67
2023-04-18T10:52:06.404Z,44.68
2023-04-18T10:54:47.818Z,44.71
2023-04-18T10:57:20.718Z,45.09
2023-04-18T10:59:54.836Z,44.84
2023-04-18T11:02:33.524Z,45.03
2023-04-18T11:05:29.149Z,44.54
2023-04-18T11:08:01.592Z,44.76
2023-04-18T11:10:34.161Z,45.28
2023-04-18T11:13:07.906Z,44.55
2023-04-18T11:16:03.165Z,45.47
2023-04-18T11:18:43.504Z,44.81
2023-04-18T11:21:16.715Z,44.53
2023-04-18T11:23:49.350Z,44.66
2023-04-18T11:26:29.540Z,44.85
2023-04-18T11:29:02.981Z,44.86
2023-04-18T11:31:54.057Z,44.77
2023-04-18T11:34:32.670Z,44.56
2023-04-18T11:37:08.594Z,44.84
2023-04-18T11:39:43.236Z,44.88
2023-04-18T11:42:15.912Z,44.65
2023-04-18T11:44:49.222Z,44.99
2023-04-18T11:47:34.308Z,44.58
2023-04-18T11:50:10.642Z,45.00
2023-04-18T11:52:56.642Z,44.46
2023-04-18T11:55:30.714Z,45.19
2023-04-18T11:58:03.770Z,44.76
2023-04-18T12:00:42.130Z,44.80
2023-04-18T12:03:17.115Z,44.68
2023-04-18T12:05:59.976Z,44.91
2023-04-18T12:11:29.249Z,45.10
2023-04-18T12:14:03.493Z,44.03
2023-04-18T12:16:36.761Z,45.14
2023-04-18T12:19:11.309Z,44.95
2023-04-18T12:22:00.385Z,44.77
2023-04-18T12:24:33.215Z,44.67
2023-04-18T12:27:05.978Z,45.23
2023-04-18T12:29:40.833Z,45.26
2023-04-18T12:32:13.351Z,44.94
2023-04-18T12:34:57.936Z,44.61
2023-04-18T12:37:30.487Z,44.75
2023-04-18T12:40:03.047Z,44.74
2023-04-18T12:42:35.729Z,45.18
2023-04-18T12:45:12.386Z,44.38
2023-04-18T12:47:46.770Z,44.95
2023-04-18T12:50:23.287Z,44.88
2023-04-18T12:53:01.857Z,45.12
2023-04-18T12:55:34.593Z,44.20
2023-04-18T12:58:20.653Z,44.69
2023-04-18T13:00:53.230Z,45.16
2023-04-18T13:03:26.441Z,45.05
2023-04-18T13:05:59.526Z,45.21
2023-04-18T13:08:31.993Z,45.25
2023-04-18T13:14:01.046Z,44.86
2023-04-18T13:16:33.543Z,44.81
2023-04-18T13:19:06.296Z,44.66
2023-04-18T13:21:53.346Z,45.29
2023-04-18T13:24:25.819Z,45.35
2023-04-18T13:27:00.804Z,44.76
2023-04-18T13:29:49.363Z,45.23
2023-04-18T13:32:25.927Z,45.20
2023-04-18T13:34:58.528Z,45.01
2023-04-18T13:37:31.418Z,44.94
2023-04-18T13:40:06.431Z,44.67
2023-04-18T13:42:54.357Z,45.46
2023-04-18T13:45:42.046Z,44.50
2023-04-18T13:48:17.217Z,44.86
2023-04-18T13:50:49.690Z,44.86
2023-04-18T13:53:30.232Z,44.41
2023-04-18T13:56:03.586Z,44.63
2023-04-18T13:58:36.430Z,45.21
2023-04-18T14:01:25.111Z,44.86
2023-04-18T14:04:00.096Z,45.20
2023-04-18T14:06:32.761Z,44.79
2023-04-18T14:09:21.413Z,44.92
2023-04-18T14:11:58.237Z,44.86
2023-04-18T14:14:30.951Z,44.73
2023-04-18T14:17:09.482Z,44.82
2023-04-18T14:19:51.408Z,44.72
2023-04-18T14:22:23.945Z,44.78
2023-04-18T14:25:02.463Z,44.94
2023-04-18T14:27:47.917Z,45.33
2023-04-18T14:30:29.786Z,44.73
2023-04-18T14:33:11.707Z,45.26
2023-04-18T14:35:47.217Z,45.47
2023-04-18T14:38:19.945Z,44.67
2023-04-18T14:40:55.909Z,45.47
2023-04-18T14:44:17.303Z,45.54
2023-04-18T14:46:50.126Z,44.71
2023-04-18T14:49:22.613Z,44.43
2023-04-18T14:52:05.728Z,44.91
2023-04-18T14:54:47.293Z,45.37
2023-04-18T14:57:19.748Z,45.24
2023-04-18T15:02:43.940Z,44.39
2023-04-18T15:05:20.523Z,44.87
2023-04-18T15:07:56.181Z,44.99
2023-04-18T15:10:28.787Z,44.87
2023-04-18T15:13:01.425Z,45.35
2023-04-18T15:15:35.610Z,45.54
2023-04-18T15:18:08.609Z,45.33
2023-04-18T15:20:44.109Z,45.25
2023-04-18T15:26:08.981Z,45.61
2023-04-18T15:28:41.661Z,45.59
2023-04-18T15:31:19.896Z,45.48
2023-04-18T15:34:02.682Z,45.51
2023-04-18T15:36:36.009Z,45.86
2023-04-18T15:39:09.181Z,45.30
2023-04-18T15:41:46.640Z,45.37
2023-04-18T15:44:19.379Z,45.58
2023-04-18T15:46:55.485Z,45.22
2023-04-18T15:52:17.390Z,45.12
2023-04-18T15:54:58.439Z,45.70
2023-04-18T15:57:31.583Z,45.15
2023-04-18T16:00:11.631Z,45.30
2023-04-18T16:02:46.127Z,45.30
2023-04-18T16:05:19.494Z,45.65
2023-04-18T16:07:53.912Z,45.79
2023-04-18T16:10:26.569Z,45.52
2023-04-18T16:12:59.655Z,45.34
2023-04-18T16:15:41.401Z,45.84
2023-04-18T16:18:14.279Z,45.34
2023-04-18T16:20:49.676Z,45.63
2023-04-18T16:23:25.545Z,45.94
2023-04-18T16:26:01.008Z,45.64
2023-04-18T16:28:37.655Z,45.88
2023-04-18T16:31:10.309Z,45.74
2023-04-18T16:33:52.849Z,45.03
2023-04-18T16:36:25.990Z,45.83
2023-04-18T16:38:58.432Z,45.77
2023-04-18T16:41:42.848Z,45.81
2023-04-18T16:44:18.125Z,46.08
2023-04-18T16:46:51.643Z,45.18
2023-04-18T16:49:24.309Z,45.28
2023-04-18T16:51:56.728Z,44.93
2023-04-18T16:54:29.236Z,44.99
2023-04-18T16:57:02.775Z,45.59
2023-04-18T16:59:35.362Z,45.53
2023-04-18T17:02:08.900Z,45.44
2023-04-18T17:04:42.197Z,45.54
2023-04-18T17:07:14.813Z,45.22
2023-04-18T17:09:47.550Z,44.82
2023-04-18T17:12:20.254Z,45.90
2023-04-18T17:14:56.749Z,45.75
2023-04-18T17:17:29.356Z,44.93
2023-04-18T17:20:02.038Z,45.97
2023-04-18T17:22:34.662Z,45.30
2023-04-18T17:25:07.861Z,44.74
2023-04-18T17:27:41.279Z,44.96
2023-04-18T17:30:13.792Z,45.46
2023-04-18T17:32:46.432Z,45.52
2023-04-18T17:35:18.987Z,45.12
2023-04-18T17:37:52.872Z,45.24
2023-04-18T17:40:25.667Z,45.34
2023-04-18T17:42:58.247Z,46.16
2023-04-18T17:45:30.860Z,45.32
2023-04-18T17:48:05.148Z,45.73
2023-04-18T17:50:38.161Z,45.87
2023-04-18T17:53:21.137Z,45.13
2023-04-18T17:55:55.236Z,45.54
2023-04-18T17:58:28.118Z,45.92
2023-04-18T18:01:00.702Z,45.62
2023-04-18T18:03:33.253Z,45.59
2023-04-18T18:06:05.960Z,46.08
2023-04-18T18:08:38.410Z,45.95
2023-04-18T18:11:11.144Z,45.62
2023-04-18T18:13:43.786Z,46.21
2023-04-18T18:16:16.332Z,45.81
2023-04-18T18:18:51.322Z,45.42
2023-04-18T18:21:23.838Z,45.63
2023-04-18T18:23:56.280Z,45.33
2023-04-18T18:26:28.910Z,44.91
2023-04-18T18:29:02.124Z,45.45
2023-04-18T18:31:38.379Z,45.84
2023-04-18T18:34:11.010Z,45.44
2023-04-18T18:36:46.299Z,45.00
2023-04-18T18:39:18.854Z,46.32
2023-04-18T18:41:52.209Z,45.63
2023-04-18T18:44:24.773Z,46.42
2023-04-18T18:46:58.737Z,44.93
2023-04-18T18:49:31.134Z,45.09
2023-04-18T18:52:05.292Z,45.64
2023-04-18T18:54:37.834Z,45.11
2023-04-18T18:57:10.356Z,45.59
2023-04-18T18:59:53.347Z,45.58
2023-04-18T19:02:28.210Z,45.59
2023-04-18T19:05:01.090Z,45.52
2023-04-18T19:07:33.547Z,45.47
2023-04-18T19:10:07.830Z,45.62
2023-04-18T19:12:40.353Z,45.68
2023-04-18T19:15:12.808Z,45.70
2023-04-18T19:17:45.500Z,45.27
2023-04-18T19:20:18.122Z,45.75
2023-04-18T19:22:50.913Z,46.66
2023-04-18T19:25:23.420Z,45.38
2023-04-18T19:27:55.846Z,45.94
2023-04-18T19:30:28.392Z,46.34
2023-04-18T19:33:01.024Z,45.67
2023-04-18T19:35:34.752Z,45.73
2023-04-18T19:38:08.424Z,46.03
2023-04-18T19:40:40.975Z,46.38
2023-04-18T19:43:13.434Z,46.53
2023-04-18T19:45:46.178Z,46.60
2023-04-18T19:48:18.657Z,45.90
2023-04-18T19:50:51.126Z,46.50
2023-04-18T19:53:23.779Z,46.43
2023-04-18T19:55:57.155Z,45.78
2023-04-18T19:58:38.624Z,46.07
2023-04-18T20:01:15.021Z,46.45
2023-04-18T20:03:48.053Z,46.65
2023-04-18T20:06:21.170Z,46.31
2023-04-18T20:09:01.796Z,46.55
2023-04-18T20:11:37.065Z,46.50
2023-04-18T20:14:12.588Z,46.45
2023-04-18T20:16:49.159Z,46.35
2023-04-18T20:19:25.664Z,46.50
2023-04-18T20:21:58.259Z,46.27
2023-04-18T20:24:31.879Z,46.11
2023-04-18T20:27:04.577Z,45.92
2023-04-18T20:29:37.233Z,46.22
2023-04-18T20:32:11.514Z,45.79
2023-04-18T20:34:59.961Z,46.03
2023-04-18T20:37:36.702Z,46.35
2023-04-18T20:40:09.989Z,46.28
2023-04-18T20:42:44.610Z,45.99
2023-04-18T20:45:29.619Z,45.64
2023-04-18T20:48:02.369Z,45.99
2023-04-18T20:50:34.945Z,45.85
2023-04-18T20:53:08.425Z,45.40
2023-04-18T20:56:01.391Z,46.02
2023-04-18T20:58:33.960Z,46.25
2023-04-18T21:01:07.103Z,46.13
2023-04-18T21:03:42.708Z,45.77
2023-04-18T21:06:28.314Z,45.81
2023-04-18T21:09:13.064Z,45.64
2023-04-18T21:11:48.791Z,45.64
2023-04-18T21:14:24.551Z,45.94
2023-04-18T21:17:00.510Z,45.66
2023-04-18T21:19:32.986Z,46.16
2023-04-18T21:22:05.836Z,46.07
2023-04-18T21:24:46.809Z,45.77
2023-04-18T21:27:26.756Z,45.66
2023-04-18T21:30:08.539Z,46.13
2023-04-18T21:32:49.262Z,45.91
2023-04-18T21:35:29.703Z,46.14
2023-04-18T21:38:03.816Z,45.92
2023-04-18T21:40:37.397Z,45.60
2023-04-18T21:43:10.024Z,46.47
2023-04-18T21:45:42.498Z,45.72
2023-04-18T21:48:22.741Z,46.42
2023-04-18T21:50:55.482Z,46.34
2023-04-18T21:53:27.993Z,45.34
2023-04-18T21:56:00.907Z,46.18
2023-04-18T21:58:34.022Z,45.55
2023-04-18T22:01:08.977Z,46.29
2023-04-18T22:03:41.793Z,45.72
2023-04-18T22:06:14.568Z,46.29
2023-04-18T22:08:46.996Z,45.80
2023-04-18T22:11:19.454Z,45.60
2023-04-18T22:13:54.199Z,45.43
2023-04-18T22:16:28.689Z,46.38
2023-04-18T22:19:01.411Z,46.05
2023-04-18T22:21:33.992Z,45.88
2023-04-18T22:24:07.112Z,45.41
2023-04-18T22:26:39.966Z,45.58
2023-04-18T22:29:12.524Z,46.13
2023-04-18T22:31:45.598Z,45.90
2023-04-18T22:34:18.167Z,45.98
2023-04-18T22:36:50.968Z,46.48
2023-04-18T22:39:24.592Z,45.28
2023-04-18T22:41:57.097Z,45.46
2023-04-18T22:44:34.816Z,45.59
2023-04-18T22:47:08.031Z,45.41
2023-04-18T22:49:47.160Z,45.31
2023-04-18T22:52:20.311Z,45.89
2023-04-18T22:54:53.024Z,45.40
2023-04-18T22:57:25.716Z,45.58
2023-04-18T22:59:58.358Z,45.54
2023-04-18T23:02:31.084Z,46.09
2023-04-18T23:05:05.758Z,45.91
2023-04-18T23:07:38.449Z,45.91
2023-04-18T23:10:11.774Z,46.06
2023-04-18T23:12:47.426Z,45.86
2023-04-18T23:15:22.688Z,45.74
2023-04-18T23:17:55.304Z,45.18
2023-04-18T23:20:28.675Z,46.33
2023-04-18T23:23:01.179Z,46.29
2023-04-18T23:25:35.656Z,46.29
2023-04-18T23:28:08.894Z,45.55
2023-04-18T23:30:41.327Z,45.69
2023-04-18T23:33:13.798Z,45.46
2023-04-18T23:35:46.195Z,45.67
2023-04-18T23:38:19.571Z,45.71
2023-04-18T23:40:52.451Z,46.23
2023-04-18T23:43:24.959Z,45.67
2023-04-18T23:45:57.604Z,45.79
2023-04-18T23:48:30.380Z,45.77
2023-04-18T23:51:02.921Z,45.71
2023-04-18T23:53:35.421Z,45.65
2023-04-18T23:56:08.546Z,45.57
2023-04-18T23:58:41.030Z,45.71
